Weather at Tupai Airport

Public forecast

Using degrees Celsius for public forecast. Weather courtesy of forecast.io.

Closest aviation weather report (METAR) to Tupai Airport

Closest report is Faa'a International Airport, 150.2 nm (278.2 km) ESE. Retrieved 2022/01/25 11:00 UTC (6 minutes ago):

NTAA 251100Z 07010KT 9999 FEW023 SCT260 27/22 Q1014 NOSIG

Closest aviation forecast (TAF) to Tupai Airport

Closest forecast is Faa'a International Airport, 150.2 nm (278.2 km) ESE. Retrieved 2022/01/25 06:21 UTC (5 hours ago):

TAF NTAA 250500Z 2506/2612 05008KT 9999 SCT020 PROB30 TEMPO 2512/2516 3000 SHRA SCT016 BKN040